createdAt,value
2019-06-26T00:00:50.428Z,102437.89
2019-06-26T00:03:56.860Z,102440.79
2019-06-26T00:07:03.318Z,102435.00
2019-06-26T00:10:09.902Z,102437.95
2019-06-26T00:13:25.696Z,102446.42
2019-06-26T00:16:25.569Z,102449.93
2019-06-26T00:19:32.121Z,102439.46
2019-06-26T00:22:38.520Z,102436.90
2019-06-26T00:25:44.886Z,102430.59
2019-06-26T00:28:51.544Z,102431.20
2019-06-26T00:31:58.217Z,102421.62
2019-06-26T00:35:05.224Z,102406.83
2019-06-26T00:38:11.660Z,102408.06
2019-06-26T00:41:18.081Z,102411.25
2019-06-26T00:44:24.568Z,102407.06
2019-06-26T00:47:31.170Z,102393.98
2019-06-26T00:50:37.586Z,102392.69
2019-06-26T00:53:44.126Z,102385.16
2019-06-26T00:56:51.974Z,102380.70
2019-06-26T00:59:58.504Z,102377.22
2019-06-26T01:03:04.961Z,102369.75
2019-06-26T01:06:30.486Z,102383.86
2019-06-26T01:09:37.974Z,102373.41
2019-06-26T01:12:45.387Z,102370.89
2019-06-26T01:15:51.824Z,102370.46
2019-06-26T01:18:58.421Z,102383.52
2019-06-26T01:22:04.962Z,102372.03
2019-06-26T01:25:11.858Z,102371.03
2019-06-26T01:28:18.306Z,102382.09
2019-06-26T01:31:24.729Z,102365.71
2019-06-26T01:34:32.856Z,102351.07
2019-06-26T01:37:39.910Z,102337.49
2019-06-26T01:40:46.340Z,102336.08
2019-06-26T01:43:52.961Z,102361.06
2019-06-26T01:47:06.512Z,102351.99
2019-06-26T01:50:12.992Z,102362.67
2019-06-26T01:53:21.356Z,102348.23
2019-06-26T01:56:27.701Z,102360.58
2019-06-26T01:59:34.175Z,102345.63
2019-06-26T02:02:40.585Z,102346.20
2019-06-26T02:05:46.999Z,102337.80
2019-06-26T02:08:53.303Z,102326.40
2019-06-26T02:12:00.595Z,102331.28
2019-06-26T02:15:07.339Z,102317.95
2019-06-26T02:18:31.590Z,102320.12
2019-06-26T02:21:38.569Z,102317.33
2019-06-26T02:24:44.954Z,102310.92
2019-06-26T02:27:53.178Z,102310.25
2019-06-26T02:30:59.566Z,102312.81
2019-06-26T02:34:05.988Z,102310.49
2019-06-26T02:37:12.435Z,102300.93
2019-06-26T02:40:19.133Z,102305.86
2019-06-26T02:43:25.563Z,102303.17
2019-06-26T02:46:32.057Z,102301.84
2019-06-26T02:49:38.564Z,102296.40
2019-06-26T02:52:44.961Z,102295.85
2019-06-26T02:55:51.345Z,102291.98
2019-06-26T02:58:57.812Z,102281.06
2019-06-26T03:02:04.466Z,102283.52
2019-06-26T03:05:10.921Z,102280.45
2019-06-26T03:08:17.274Z,102281.59
2019-06-26T03:11:23.759Z,102266.72
2019-06-26T03:14:30.293Z,102280.78
2019-06-26T03:17:36.875Z,102285.62
2019-06-26T03:20:47.012Z,102282.83
2019-06-26T03:23:53.666Z,102264.06
2019-06-26T03:27:00.162Z,102265.25
2019-06-26T03:30:06.755Z,102267.25
2019-06-26T03:33:13.200Z,102262.98
2019-06-26T03:36:19.687Z,102261.23
2019-06-26T03:39:26.126Z,102271.63
2019-06-26T03:42:34.731Z,102268.16
2019-06-26T03:45:41.205Z,102275.42
2019-06-26T03:48:47.665Z,102273.23
2019-06-26T03:51:54.142Z,102268.05
2019-06-26T03:55:00.618Z,102291.13
2019-06-26T03:58:07.008Z,102272.94
2019-06-26T04:01:13.367Z,102251.35
2019-06-26T04:04:19.756Z,102246.27
2019-06-26T04:07:26.171Z,102216.63
2019-06-26T04:10:33.702Z,102226.41
2019-06-26T04:13:40.101Z,102224.32
2019-06-26T04:16:46.541Z,102222.61
2019-06-26T04:19:52.945Z,102219.66
2019-06-26T04:22:59.743Z,102205.16
2019-06-26T04:26:06.549Z,102209.10
2019-06-26T04:29:12.952Z,102207.66
2019-06-26T04:32:19.358Z,102220.26
2019-06-26T04:35:25.810Z,102202.06
2019-06-26T04:38:32.116Z,102203.08
2019-06-26T04:41:38.596Z,102192.33
2019-06-26T04:44:45.806Z,102183.30
2019-06-26T04:47:52.159Z,102173.36
2019-06-26T04:50:58.638Z,102186.20
2019-06-26T04:54:05.093Z,102182.48
2019-06-26T04:57:11.508Z,102186.64
2019-06-26T05:00:21.640Z,102158.84
2019-06-26T05:03:26.299Z,102156.67
2019-06-26T05:06:32.803Z,102177.61
2019-06-26T05:09:39.263Z,102177.41
2019-06-26T05:12:45.776Z,102180.52
2019-06-26T05:15:52.237Z,102179.50
2019-06-26T05:18:58.704Z,102184.06
2019-06-26T05:22:04.985Z,102181.71
2019-06-26T05:25:12.220Z,102165.70
2019-06-26T05:28:21.108Z,102152.55
2019-06-26T05:31:27.603Z,102134.77
2019-06-26T05:34:34.078Z,102122.26
2019-06-26T05:37:40.525Z,102130.78
2019-06-26T05:40:47.023Z,102125.86
2019-06-26T05:43:53.379Z,102117.36
2019-06-26T05:47:01.700Z,102113.30
2019-06-26T05:50:08.631Z,102124.69
2019-06-26T05:53:15.020Z,102132.95
2019-06-26T05:56:21.483Z,102148.35
2019-06-26T05:59:27.755Z,102166.75
2019-06-26T06:02:34.199Z,102178.09
2019-06-26T06:05:40.892Z,102176.80
2019-06-26T06:08:47.405Z,102166.31
2019-06-26T06:11:53.766Z,102148.79
2019-06-26T06:15:00.147Z,102143.02
2019-06-26T06:18:06.575Z,102147.91
2019-06-26T06:21:12.945Z,102152.55
2019-06-26T06:24:19.718Z,102162.30
2019-06-26T06:27:27.212Z,102176.63
2019-06-26T06:30:33.864Z,102180.09
2019-06-26T06:33:40.286Z,102170.36
2019-06-26T06:36:46.771Z,102163.56
2019-06-26T06:39:53.044Z,102161.36
2019-06-26T06:42:59.623Z,102161.27
2019-06-26T06:46:06.117Z,102154.01
2019-06-26T06:49:12.942Z,102141.97
2019-06-26T06:52:19.276Z,102149.00
2019-06-26T06:55:25.647Z,102140.27
2019-06-26T06:58:32.131Z,102145.16
2019-06-26T07:01:38.613Z,102143.67
2019-06-26T07:04:45.050Z,102138.98
2019-06-26T07:07:51.524Z,102141.71
2019-06-26T07:10:57.931Z,102132.83
2019-06-26T07:14:04.424Z,102125.30
2019-06-26T07:17:20.424Z,102110.50
2019-06-26T07:20:18.944Z,102122.11
2019-06-26T07:23:25.478Z,102123.22
2019-06-26T07:26:31.997Z,102123.48
2019-06-26T07:29:38.367Z,102125.02
2019-06-26T07:32:45.122Z,102110.33
2019-06-26T07:35:51.684Z,102115.00
2019-06-26T07:38:58.521Z,102108.52
2019-06-26T07:42:04.980Z,102105.05
2019-06-26T07:45:12.524Z,102118.20
2019-06-26T07:48:20.566Z,102125.94
2019-06-26T07:51:27.499Z,102127.79
2019-06-26T07:54:33.912Z,102130.16
2019-06-26T07:57:40.379Z,102130.36
2019-06-26T08:00:46.779Z,102110.66
2019-06-26T08:03:53.218Z,102095.33
2019-06-26T08:06:59.550Z,102090.84
2019-06-26T08:10:06.969Z,102091.16
2019-06-26T08:13:13.301Z,102089.78
2019-06-26T08:16:19.721Z,102099.48
2019-06-26T08:19:26.130Z,102103.82
2019-06-26T08:22:32.623Z,102096.02
2019-06-26T08:25:39.054Z,102092.60
2019-06-26T08:28:45.676Z,102105.93
2019-06-26T08:31:51.922Z,102103.50
2019-06-26T08:34:58.664Z,102104.28
2019-06-26T08:38:12.461Z,102106.25
2019-06-26T08:41:13.353Z,102081.81
2019-06-26T08:44:19.804Z,102080.09
2019-06-26T08:47:26.526Z,102081.31
2019-06-26T08:50:33.008Z,102088.36
2019-06-26T08:53:39.690Z,102089.57
2019-06-26T08:56:46.137Z,102081.03
2019-06-26T08:59:52.431Z,102087.92
2019-06-26T09:02:58.780Z,102090.23
2019-06-26T09:06:05.267Z,102079.38
2019-06-26T09:09:11.614Z,102081.02
2019-06-26T09:12:18.234Z,102079.56
2019-06-26T09:15:24.702Z,102091.80
2019-06-26T09:18:35.823Z,102082.35
2019-06-26T09:21:39.195Z,102081.36
2019-06-26T09:24:45.754Z,102069.20
2019-06-26T09:27:52.215Z,102062.07
2019-06-26T09:30:58.627Z,102056.84
2019-06-26T09:34:05.369Z,102057.17
2019-06-26T09:37:13.143Z,102051.66
2019-06-26T09:40:19.622Z,102047.56
2019-06-26T09:43:26.117Z,102051.66
2019-06-26T09:46:32.461Z,102026.38
2019-06-26T09:49:38.842Z,102054.87
2019-06-26T09:52:45.298Z,102049.36
2019-06-26T09:55:51.882Z,102058.39
2019-06-26T09:58:58.205Z,102055.63
2019-06-26T10:02:04.816Z,102055.95
2019-06-26T10:05:13.511Z,102049.97
2019-06-26T10:08:19.935Z,102043.31
2019-06-26T10:11:26.380Z,102039.54
2019-06-26T10:14:46.629Z,102046.77
2019-06-26T10:17:41.063Z,102027.35
2019-06-26T10:20:47.577Z,102026.16
2019-06-26T10:23:54.023Z,102019.73
2019-06-26T10:27:00.550Z,102027.11
2019-06-26T10:30:08.523Z,102008.35
2019-06-26T10:33:16.068Z,102005.41
2019-06-26T10:36:24.582Z,102003.34
2019-06-26T10:39:30.921Z,102007.34
2019-06-26T10:42:37.391Z,102000.91
2019-06-26T10:45:43.922Z,102005.34
2019-06-26T10:48:50.289Z,102000.91
2019-06-26T10:51:56.841Z,102000.68
2019-06-26T10:55:03.399Z,102000.16
2019-06-26T10:58:10.307Z,101998.28
2019-06-26T11:01:16.744Z,101999.23
2019-06-26T11:04:23.200Z,101998.06
2019-06-26T11:07:29.723Z,101993.47
2019-06-26T11:10:36.238Z,101973.41
2019-06-26T11:13:42.746Z,101977.16
2019-06-26T11:16:50.801Z,101970.59
2019-06-26T11:19:57.252Z,101969.20
2019-06-26T11:23:03.699Z,101970.27
2019-06-26T11:26:11.287Z,101972.66
2019-06-26T11:29:17.693Z,101967.98
2019-06-26T11:32:24.297Z,101954.59
2019-06-26T11:35:30.867Z,101960.80
2019-06-26T11:38:37.251Z,101939.49
2019-06-26T11:41:43.977Z,101929.06
2019-06-26T11:44:50.462Z,101934.86
2019-06-26T11:47:56.988Z,101926.77
2019-06-26T11:51:03.427Z,101923.09
2019-06-26T11:54:09.782Z,101920.62
2019-06-26T11:57:16.268Z,101931.98
2019-06-26T12:00:24.043Z,101934.44
2019-06-26T12:03:30.557Z,101918.33
2019-06-26T12:06:37.064Z,101916.70
2019-06-26T12:09:43.593Z,101921.29
2019-06-26T12:12:50.091Z,101908.34
2019-06-26T12:15:56.450Z,101898.97
2019-06-26T12:19:02.975Z,101894.37
2019-06-26T12:22:09.347Z,101898.64
2019-06-26T12:25:15.837Z,101892.83
2019-06-26T12:28:22.266Z,101898.09
2019-06-26T12:31:28.998Z,101890.61
2019-06-26T12:34:35.370Z,101886.94
2019-06-26T12:37:41.940Z,101870.25
2019-06-26T12:40:48.289Z,101874.70
2019-06-26T12:43:55.012Z,101863.25
2019-06-26T12:47:01.472Z,101862.05
2019-06-26T12:50:09.867Z,101867.39
2019-06-26T12:53:16.282Z,101868.56
2019-06-26T12:56:22.633Z,101866.30
2019-06-26T12:59:29.151Z,101856.49
2019-06-26T13:02:36.450Z,101860.36
2019-06-26T13:05:42.885Z,101864.83
2019-06-26T13:08:50.521Z,101876.64
2019-06-26T13:11:56.999Z,101871.72
2019-06-26T13:15:03.635Z,101870.53
2019-06-26T13:18:11.594Z,101852.33
2019-06-26T13:21:18.005Z,101862.06
2019-06-26T13:24:24.439Z,101863.87
2019-06-26T13:27:30.973Z,101863.38
2019-06-26T13:30:38.734Z,101872.03
2019-06-26T13:33:45.164Z,101856.48
2019-06-26T13:36:51.619Z,101849.46
2019-06-26T13:39:57.970Z,101851.69
2019-06-26T13:43:04.395Z,101851.75
2019-06-26T13:46:11.118Z,101840.58
2019-06-26T13:49:17.618Z,101834.81
2019-06-26T13:52:24.065Z,101821.16
2019-06-26T13:55:30.484Z,101824.70
2019-06-26T13:58:36.816Z,101817.02
2019-06-26T14:01:43.379Z,101814.31
2019-06-26T14:04:50.156Z,101825.68
2019-06-26T14:07:56.578Z,101806.66
2019-06-26T14:11:03.096Z,101805.60
2019-06-26T14:14:09.594Z,101817.94
2019-06-26T14:17:16.109Z,101811.51
2019-06-26T14:20:23.131Z,101806.53
2019-06-26T14:23:29.572Z,101807.78
2019-06-26T14:26:36.053Z,101807.31
2019-06-26T14:29:42.517Z,101802.19
2019-06-26T14:32:48.972Z,101809.92
2019-06-26T14:35:55.447Z,101800.02
2019-06-26T14:39:01.956Z,101797.02
2019-06-26T14:42:10.033Z,101791.75
2019-06-26T14:45:17.423Z,101785.92
2019-06-26T14:48:25.149Z,101783.10
2019-06-26T14:51:43.407Z,101774.49
2019-06-26T14:54:39.793Z,101776.97
2019-06-26T14:57:46.237Z,101773.77
2019-06-26T15:00:53.000Z,101779.72
2019-06-26T15:03:59.428Z,101777.50
2019-06-26T15:07:06.166Z,101774.80
2019-06-26T15:10:14.445Z,101758.83
2019-06-26T15:13:20.884Z,101738.67
2019-06-26T15:16:30.351Z,101739.53
2019-06-26T15:19:35.538Z,101731.53
2019-06-26T15:22:42.046Z,101715.89
2019-06-26T15:25:48.548Z,101718.66
2019-06-26T15:28:54.992Z,101715.41
2019-06-26T15:32:01.489Z,101710.62
2019-06-26T15:35:07.973Z,101716.62
2019-06-26T15:38:14.696Z,101708.22
2019-06-26T15:41:21.244Z,101710.97
2019-06-26T15:44:27.622Z,101719.48
2019-06-26T15:47:34.056Z,101712.34
2019-06-26T15:50:40.727Z,101701.48
2019-06-26T15:53:47.210Z,101717.64
2019-06-26T15:56:53.670Z,101712.44
2019-06-26T16:00:00.125Z,101711.53
2019-06-26T16:03:06.685Z,101704.33
2019-06-26T16:06:13.149Z,101701.31
2019-06-26T16:09:19.682Z,101700.61
2019-06-26T16:12:26.078Z,101696.22
2019-06-26T16:15:33.039Z,101690.98
2019-06-26T16:18:44.617Z,101696.84
2019-06-26T16:21:51.029Z,101692.50
2019-06-26T16:24:57.395Z,101685.55
2019-06-26T16:28:05.690Z,101690.59
2019-06-26T16:31:12.017Z,101682.90
2019-06-26T16:34:18.614Z,101680.19
2019-06-26T16:37:25.053Z,101676.20
2019-06-26T16:40:31.546Z,101683.78
2019-06-26T16:43:38.096Z,101676.30
2019-06-26T16:46:44.625Z,101670.88
2019-06-26T16:49:51.068Z,101672.33
2019-06-26T16:52:57.860Z,101670.53
2019-06-26T16:56:04.402Z,101655.08
2019-06-26T16:59:10.943Z,101661.29
2019-06-26T17:02:17.372Z,101653.91
2019-06-26T17:05:24.804Z,101653.91
2019-06-26T17:08:31.227Z,101653.55
2019-06-26T17:11:38.218Z,101640.91
2019-06-26T17:14:44.595Z,101637.35
2019-06-26T17:17:51.050Z,101637.42
2019-06-26T17:20:57.518Z,101633.64
2019-06-26T17:24:06.126Z,101636.34
2019-06-26T17:27:12.477Z,101631.91
2019-06-26T17:30:19.278Z,101625.16
2019-06-26T17:33:25.762Z,101625.80
2019-06-26T17:36:32.232Z,101610.44
2019-06-26T17:39:38.706Z,101609.95
2019-06-26T17:42:45.211Z,101603.72
2019-06-26T17:45:51.723Z,101598.30
2019-06-26T17:48:58.255Z,101594.62
2019-06-26T17:52:04.691Z,101592.07
2019-06-26T17:55:11.357Z,101589.95
2019-06-26T17:58:17.837Z,101580.28
2019-06-26T18:01:24.237Z,101574.95
2019-06-26T18:04:30.669Z,101576.24
2019-06-26T18:07:37.396Z,101570.72
2019-06-26T18:10:43.910Z,101559.47
2019-06-26T18:13:50.837Z,101560.85
2019-06-26T18:16:57.252Z,101563.33
2019-06-26T18:20:03.943Z,101570.02
2019-06-26T18:23:10.413Z,101564.80
2019-06-26T18:26:17.940Z,101564.80
2019-06-26T18:29:24.384Z,101564.80
2019-06-26T18:32:31.243Z,101562.04
2019-06-26T18:35:37.725Z,101561.82
2019-06-26T18:38:44.196Z,101566.72
2019-06-26T18:41:50.611Z,101565.41
2019-06-26T18:44:57.099Z,101576.95
2019-06-26T18:48:03.588Z,101586.70
2019-06-26T18:51:10.088Z,101584.59
2019-06-26T18:54:16.461Z,101580.03
2019-06-26T18:57:23.127Z,101576.44
2019-06-26T19:00:29.676Z,101582.83
2019-06-26T19:03:36.238Z,101584.34
2019-06-26T19:06:42.686Z,101582.66
2019-06-26T19:09:49.255Z,101591.35
2019-06-26T19:12:55.762Z,101575.66
2019-06-26T19:16:04.659Z,101587.03
2019-06-26T19:19:12.394Z,101590.32
2019-06-26T19:22:19.040Z,101574.16
2019-06-26T19:25:25.607Z,101589.39
2019-06-26T19:28:32.086Z,101569.59
2019-06-26T19:31:39.728Z,101572.90
2019-06-26T19:34:46.182Z,101565.23
2019-06-26T19:37:52.626Z,101572.35
2019-06-26T19:40:59.507Z,101573.79
2019-06-26T19:44:08.816Z,101565.41
2019-06-26T19:47:14.383Z,101565.22
2019-06-26T19:50:23.606Z,101555.06
2019-06-26T19:53:29.931Z,101561.16
2019-06-26T19:56:36.379Z,101560.89
2019-06-26T19:59:43.358Z,101564.08
2019-06-26T20:02:49.884Z,101555.73
2019-06-26T20:05:56.418Z,101584.46
2019-06-26T20:09:02.801Z,101587.59
2019-06-26T20:12:10.559Z,101578.77
2019-06-26T20:15:17.020Z,101582.38
2019-06-26T20:18:24.017Z,101584.52
2019-06-26T20:21:30.473Z,101584.47
2019-06-26T20:24:43.947Z,101587.23
2019-06-26T20:27:46.214Z,101577.58
2019-06-26T20:30:52.723Z,101570.50
2019-06-26T20:33:59.098Z,101563.80
2019-06-26T20:37:05.542Z,101570.02
2019-06-26T20:40:12.308Z,101570.02
2019-06-26T20:43:18.687Z,101564.52
2019-06-26T20:46:25.130Z,101567.86
2019-06-26T20:49:32.586Z,101565.83
2019-06-26T20:52:39.056Z,101566.98
2019-06-26T20:55:45.589Z,101574.40
2019-06-26T20:58:52.105Z,101568.30
2019-06-26T21:02:00.186Z,101567.88
2019-06-26T21:05:07.072Z,101565.66
2019-06-26T21:08:13.558Z,101558.23
2019-06-26T21:11:21.483Z,101561.52
2019-06-26T21:14:28.011Z,101549.05
2019-06-26T21:17:34.432Z,101537.55
2019-06-26T21:20:41.195Z,101530.96
2019-06-26T21:23:47.637Z,101520.05
2019-06-26T21:26:54.056Z,101516.22
2019-06-26T21:30:02.810Z,101516.65
2019-06-26T21:33:09.470Z,101526.89
2019-06-26T21:36:18.157Z,101540.58
2019-06-26T21:39:24.617Z,101536.30
2019-06-26T21:42:31.138Z,101535.17
2019-06-26T21:45:37.590Z,101542.71
2019-06-26T21:48:44.038Z,101535.72
2019-06-26T21:51:50.494Z,101538.22
2019-06-26T21:54:57.437Z,101545.89
2019-06-26T21:58:21.885Z,101546.63
2019-06-26T22:01:46.436Z,101541.76
2019-06-26T22:05:12.577Z,101527.67
2019-06-26T22:08:27.093Z,101525.81
2019-06-26T22:11:35.237Z,101533.97
2019-06-26T22:14:41.660Z,101541.05
2019-06-26T22:17:48.368Z,101536.30
2019-06-26T22:20:55.134Z,101531.57
2019-06-26T22:24:01.836Z,101540.56
2019-06-26T22:27:08.605Z,101542.20
2019-06-26T22:30:15.784Z,101552.00
2019-06-26T22:33:22.308Z,101542.20
2019-06-26T22:36:28.804Z,101550.86
2019-06-26T22:39:35.269Z,101549.80
2019-06-26T22:42:41.821Z,101550.70
2019-06-26T22:45:48.254Z,101550.86
2019-06-26T22:48:56.165Z,101559.06
2019-06-26T22:52:02.604Z,101558.71
2019-06-26T22:55:09.315Z,101556.80
2019-06-26T22:58:16.052Z,101550.19
2019-06-26T23:01:22.573Z,101547.13
2019-06-26T23:04:30.622Z,101549.44
2019-06-26T23:07:37.563Z,101554.98
2019-06-26T23:10:43.963Z,101546.23
2019-06-26T23:13:50.491Z,101546.02
2019-06-26T23:16:56.945Z,101539.72
2019-06-26T23:20:04.296Z,101545.11
2019-06-26T23:23:11.395Z,101549.63
2019-06-26T23:26:23.798Z,101552.70
2019-06-26T23:29:26.200Z,101553.95
2019-06-26T23:32:32.718Z,101548.31
2019-06-26T23:35:40.035Z,101559.48
2019-06-26T23:38:46.566Z,101556.80
2019-06-26T23:41:54.565Z,101553.85
2019-06-26T23:45:01.140Z,101561.43
2019-06-26T23:48:07.582Z,101558.83
2019-06-26T23:51:14.056Z,101561.48
2019-06-26T23:54:20.550Z,101564.39
2019-06-26T23:57:27.153Z,101559.42
